sensor_id;sensor_type;location;lat;lon;timestamp;P1;durP1;ratioP1;P2;durP2;ratioP2
66183;SDS011;52989;48.796;9.806;2022-08-19T00:01:24;15.15;;;12.40;;
66183;SDS011;52989;48.796;9.806;2022-08-19T00:03:50;14.52;;;12.77;;
66183;SDS011;52989;48.796;9.806;2022-08-19T00:06:16;15.93;;;13.43;;
66183;SDS011;52989;48.796;9.806;2022-08-19T00:08:42;16.00;;;13.43;;
66183;SDS011;52989;48.796;9.806;2022-08-19T00:11:08;14.90;;;13.30;;
66183;SDS011;52989;48.796;9.806;2022-08-19T00:13:34;19.00;;;13.50;;
66183;SDS011;52989;48.796;9.806;2022-08-19T00:16:01;16.48;;;13.95;;
66183;SDS011;52989;48.796;9.806;2022-08-19T00:18:27;16.77;;;14.57;;
66183;SDS011;52989;48.796;9.806;2022-08-19T00:20:53;15.40;;;13.50;;
66183;SDS011;52989;48.796;9.806;2022-08-19T00:23:18;18.27;;;15.30;;
66183;SDS011;52989;48.796;9.806;2022-08-19T00:25:44;18.33;;;15.57;;
66183;SDS011;52989;48.796;9.806;2022-08-19T00:28:10;17.73;;;15.30;;
66183;SDS011;52989;48.796;9.806;2022-08-19T00:30:35;21.92;;;16.90;;
66183;SDS011;52989;48.796;9.806;2022-08-19T00:33:01;17.98;;;15.95;;
66183;SDS011;52989;48.796;9.806;2022-08-19T00:35:27;17.65;;;15.65;;
66183;SDS011;52989;48.796;9.806;2022-08-19T00:37:53;17.67;;;15.88;;
66183;SDS011;52989;48.796;9.806;2022-08-19T00:40:19;18.50;;;16.38;;
66183;SDS011;52989;48.796;9.806;2022-08-19T00:42:46;17.23;;;15.40;;
66183;SDS011;52989;48.796;9.806;2022-08-19T00:45:16;21.25;;;16.15;;
66183;SDS011;52989;48.796;9.806;2022-08-19T00:47:44;18.33;;;16.40;;
66183;SDS011;52989;48.796;9.806;2022-08-19T00:50:11;18.40;;;16.02;;
66183;SDS011;52989;48.796;9.806;2022-08-19T00:52:40;20.42;;;17.45;;
66183;SDS011;52989;48.796;9.806;2022-08-19T00:55:10;20.58;;;16.98;;
66183;SDS011;52989;48.796;9.806;2022-08-19T00:57:40;19.40;;;17.23;;
66183;SDS011;52989;48.796;9.806;2022-08-19T01:00:10;21.60;;;17.45;;
66183;SDS011;52989;48.796;9.806;2022-08-19T01:02:39;22.25;;;18.33;;
66183;SDS011;52989;48.796;9.806;2022-08-19T01:05:07;21.85;;;18.33;;
66183;SDS011;52989;48.796;9.806;2022-08-19T01:07:35;19.95;;;17.40;;
66183;SDS011;52989;48.796;9.806;2022-08-19T01:10:04;20.77;;;18.02;;
66183;SDS011;52989;48.796;9.806;2022-08-19T01:12:33;24.70;;;18.77;;
66183;SDS011;52989;48.796;9.806;2022-08-19T01:14:59;23.23;;;18.63;;
66183;SDS011;52989;48.796;9.806;2022-08-19T01:17:25;19.60;;;17.50;;
66183;SDS011;52989;48.796;9.806;2022-08-19T01:19:52;20.02;;;17.40;;
66183;SDS011;52989;48.796;9.806;2022-08-19T01:24:49;22.77;;;17.50;;
66183;SDS011;52989;48.796;9.806;2022-08-19T01:27:15;22.98;;;18.65;;
66183;SDS011;52989;48.796;9.806;2022-08-19T01:29:42;25.38;;;19.35;;
66183;SDS011;52989;48.796;9.806;2022-08-19T01:32:11;22.58;;;19.08;;
66183;SDS011;52989;48.796;9.806;2022-08-19T01:34:38;24.83;;;18.65;;
66183;SDS011;52989;48.796;9.806;2022-08-19T01:37:07;24.92;;;20.08;;
66183;SDS011;52989;48.796;9.806;2022-08-19T01:39:36;22.17;;;18.70;;
66183;SDS011;52989;48.796;9.806;2022-08-19T01:42:04;22.27;;;18.50;;
66183;SDS011;52989;48.796;9.806;2022-08-19T01:44:32;19.63;;;17.52;;
66183;SDS011;52989;48.796;9.806;2022-08-19T01:46:57;23.33;;;18.88;;
66183;SDS011;52989;48.796;9.806;2022-08-19T01:49:23;23.52;;;18.50;;
66183;SDS011;52989;48.796;9.806;2022-08-19T01:51:51;22.05;;;18.83;;
66183;SDS011;52989;48.796;9.806;2022-08-19T01:54:18;22.33;;;18.40;;
66183;SDS011;52989;48.796;9.806;2022-08-19T01:56:45;20.92;;;17.45;;
66183;SDS011;52989;48.796;9.806;2022-08-19T01:59:12;23.85;;;18.63;;
66183;SDS011;52989;48.796;9.806;2022-08-19T02:01:41;20.13;;;17.95;;
66183;SDS011;52989;48.796;9.806;2022-08-19T02:04:07;22.45;;;18.10;;
66183;SDS011;52989;48.796;9.806;2022-08-19T02:06:33;20.35;;;18.17;;
66183;SDS011;52989;48.796;9.806;2022-08-19T02:08:58;24.75;;;19.90;;
66183;SDS011;52989;48.796;9.806;2022-08-19T02:11:26;25.48;;;20.20;;
66183;SDS011;52989;48.796;9.806;2022-08-19T02:13:56;23.40;;;20.02;;
66183;SDS011;52989;48.796;9.806;2022-08-19T02:16:23;24.05;;;19.27;;
66183;SDS011;52989;48.796;9.806;2022-08-19T02:18:49;23.77;;;19.35;;
66183;SDS011;52989;48.796;9.806;2022-08-19T02:21:15;23.63;;;18.40;;
66183;SDS011;52989;48.796;9.806;2022-08-19T02:23:42;23.08;;;19.02;;
66183;SDS011;52989;48.796;9.806;2022-08-19T02:26:08;25.65;;;19.13;;
66183;SDS011;52989;48.796;9.806;2022-08-19T02:28:35;20.63;;;17.90;;
66183;SDS011;52989;48.796;9.806;2022-08-19T02:31:01;20.48;;;18.27;;
66183;SDS011;52989;48.796;9.806;2022-08-19T02:33:27;22.73;;;19.17;;
66183;SDS011;52989;48.796;9.806;2022-08-19T02:35:53;20.75;;;18.58;;
66183;SDS011;52989;48.796;9.806;2022-08-19T02:38:19;22.08;;;18.45;;
66183;SDS011;52989;48.796;9.806;2022-08-19T02:40:54;22.27;;;19.25;;
66183;SDS011;52989;48.796;9.806;2022-08-19T02:43:22;22.48;;;18.75;;
66183;SDS011;52989;48.796;9.806;2022-08-19T02:45:49;23.33;;;19.23;;
66183;SDS011;52989;48.796;9.806;2022-08-19T02:48:16;23.27;;;18.20;;
66183;SDS011;52989;48.796;9.806;2022-08-19T02:50:46;22.20;;;18.38;;
66183;SDS011;52989;48.796;9.806;2022-08-19T02:53:13;21.25;;;18.95;;
66183;SDS011;52989;48.796;9.806;2022-08-19T02:55:42;20.92;;;17.65;;
66183;SDS011;52989;48.796;9.806;2022-08-19T02:58:10;20.75;;;18.05;;
66183;SDS011;52989;48.796;9.806;2022-08-19T03:00:40;20.48;;;18.23;;
66183;SDS011;52989;48.796;9.806;2022-08-19T03:03:11;20.13;;;17.95;;
66183;SDS011;52989;48.796;9.806;2022-08-19T03:05:36;20.63;;;16.83;;
66183;SDS011;52989;48.796;9.806;2022-08-19T03:08:02;19.13;;;16.35;;
66183;SDS011;52989;48.796;9.806;2022-08-19T03:10:30;18.30;;;16.35;;
66183;SDS011;52989;48.796;9.806;2022-08-19T03:12:56;23.88;;;18.38;;
66183;SDS011;52989;48.796;9.806;2022-08-19T03:15:21;17.98;;;16.08;;
66183;SDS011;52989;48.796;9.806;2022-08-19T03:17:47;22.58;;;17.45;;
66183;SDS011;52989;48.796;9.806;2022-08-19T03:20:12;22.83;;;18.90;;
66183;SDS011;52989;48.796;9.806;2022-08-19T03:22:38;23.67;;;19.65;;
66183;SDS011;52989;48.796;9.806;2022-08-19T03:25:03;27.05;;;19.58;;
66183;SDS011;52989;48.796;9.806;2022-08-19T03:27:29;25.60;;;21.40;;
66183;SDS011;52989;48.796;9.806;2022-08-19T03:29:55;25.17;;;20.98;;
66183;SDS011;52989;48.796;9.806;2022-08-19T03:32:21;29.05;;;23.45;;
66183;SDS011;52989;48.796;9.806;2022-08-19T03:34:47;28.55;;;23.52;;
66183;SDS011;52989;48.796;9.806;2022-08-19T03:37:12;29.92;;;23.75;;
66183;SDS011;52989;48.796;9.806;2022-08-19T03:39:38;26.95;;;22.10;;
66183;SDS011;52989;48.796;9.806;2022-08-19T03:42:05;29.00;;;23.38;;
66183;SDS011;52989;48.796;9.806;2022-08-19T03:44:31;29.00;;;23.65;;
66183;SDS011;52989;48.796;9.806;2022-08-19T03:47:02;30.17;;;23.90;;
66183;SDS011;52989;48.796;9.806;2022-08-19T03:49:29;32.40;;;26.58;;
66183;SDS011;52989;48.796;9.806;2022-08-19T03:51:58;32.80;;;26.15;;
66183;SDS011;52989;48.796;9.806;2022-08-19T03:54:25;30.17;;;24.55;;
66183;SDS011;52989;48.796;9.806;2022-08-19T03:56:52;33.60;;;25.75;;
66183;SDS011;52989;48.796;9.806;2022-08-19T03:59:21;32.40;;;25.27;;
66183;SDS011;52989;48.796;9.806;2022-08-19T04:01:50;32.97;;;24.75;;
66183;SDS011;52989;48.796;9.806;2022-08-19T04:04:15;33.88;;;25.10;;
66183;SDS011;52989;48.796;9.806;2022-08-19T04:06:41;29.05;;;22.95;;
66183;SDS011;52989;48.796;9.806;2022-08-19T04:09:08;28.08;;;23.73;;
66183;SDS011;52989;48.796;9.806;2022-08-19T04:11:43;30.45;;;23.02;;
66183;SDS011;52989;48.796;9.806;2022-08-19T04:14:12;27.98;;;22.05;;
66183;SDS011;52989;48.796;9.806;2022-08-19T04:16:39;29.05;;;22.83;;
66183;SDS011;52989;48.796;9.806;2022-08-19T04:19:05;27.75;;;23.58;;
66183;SDS011;52989;48.796;9.806;2022-08-19T04:21:32;26.23;;;21.13;;
66183;SDS011;52989;48.796;9.806;2022-08-19T04:23:58;25.88;;;19.60;;
66183;SDS011;52989;48.796;9.806;2022-08-19T04:26:27;25.92;;;20.33;;
66183;SDS011;52989;48.796;9.806;2022-08-19T04:28:58;26.20;;;20.63;;
66183;SDS011;52989;48.796;9.806;2022-08-19T04:31:27;26.92;;;22.25;;
66183;SDS011;52989;48.796;9.806;2022-08-19T04:33:56;30.60;;;22.50;;
66183;SDS011;52989;48.796;9.806;2022-08-19T04:36:25;28.40;;;22.13;;
66183;SDS011;52989;48.796;9.806;2022-08-19T04:38:54;26.85;;;21.75;;
66183;SDS011;52989;48.796;9.806;2022-08-19T04:41:22;29.30;;;22.98;;
66183;SDS011;52989;48.796;9.806;2022-08-19T04:44:07;30.15;;;23.67;;
66183;SDS011;52989;48.796;9.806;2022-08-19T04:46:33;30.50;;;23.13;;
66183;SDS011;52989;48.796;9.806;2022-08-19T04:48:59;27.88;;;22.67;;
66183;SDS011;52989;48.796;9.806;2022-08-19T04:51:26;27.42;;;21.98;;
66183;SDS011;52989;48.796;9.806;2022-08-19T04:53:52;31.70;;;21.70;;
66183;SDS011;52989;48.796;9.806;2022-08-19T04:56:18;29.88;;;22.63;;
66183;SDS011;52989;48.796;9.806;2022-08-19T04:58:45;27.85;;;22.90;;
66183;SDS011;52989;48.796;9.806;2022-08-19T05:01:12;29.52;;;22.88;;
66183;SDS011;52989;48.796;9.806;2022-08-19T05:03:39;34.17;;;24.73;;
66183;SDS011;52989;48.796;9.806;2022-08-19T05:06:09;30.42;;;23.63;;
66183;SDS011;52989;48.796;9.806;2022-08-19T05:08:37;31.73;;;23.38;;
66183;SDS011;52989;48.796;9.806;2022-08-19T05:11:16;28.98;;;22.02;;
66183;SDS011;52989;48.796;9.806;2022-08-19T05:13:47;33.72;;;23.13;;
66183;SDS011;52989;48.796;9.806;2022-08-19T05:16:14;34.70;;;24.00;;
66183;SDS011;52989;48.796;9.806;2022-08-19T05:18:40;27.50;;;21.25;;
66183;SDS011;52989;48.796;9.806;2022-08-19T05:21:25;25.65;;;20.17;;
66183;SDS011;52989;48.796;9.806;2022-08-19T05:24:11;26.48;;;21.17;;
66183;SDS011;52989;48.796;9.806;2022-08-19T05:26:38;26.42;;;21.13;;
66183;SDS011;52989;48.796;9.806;2022-08-19T05:29:06;30.92;;;22.10;;
66183;SDS011;52989;48.796;9.806;2022-08-19T05:31:32;27.77;;;21.80;;
66183;SDS011;52989;48.796;9.806;2022-08-19T05:34:00;26.77;;;20.52;;
66183;SDS011;52989;48.796;9.806;2022-08-19T05:36:26;26.45;;;19.75;;
66183;SDS011;52989;48.796;9.806;2022-08-19T05:38:53;24.33;;;19.40;;
66183;SDS011;52989;48.796;9.806;2022-08-19T05:41:19;26.73;;;20.88;;
66183;SDS011;52989;48.796;9.806;2022-08-19T05:43:46;24.00;;;19.33;;
66183;SDS011;52989;48.796;9.806;2022-08-19T05:46:18;27.05;;;19.55;;
66183;SDS011;52989;48.796;9.806;2022-08-19T05:48:45;24.20;;;18.80;;
66183;SDS011;52989;48.796;9.806;2022-08-19T05:51:11;24.60;;;19.20;;
66183;SDS011;52989;48.796;9.806;2022-08-19T05:53:37;24.33;;;18.88;;
66183;SDS011;52989;48.796;9.806;2022-08-19T05:56:09;23.50;;;18.75;;
66183;SDS011;52989;48.796;9.806;2022-08-19T05:58:37;24.00;;;18.70;;
66183;SDS011;52989;48.796;9.806;2022-08-19T06:01:04;28.23;;;19.38;;
66183;SDS011;52989;48.796;9.806;2022-08-19T06:03:35;21.73;;;16.27;;
66183;SDS011;52989;48.796;9.806;2022-08-19T06:06:02;24.98;;;19.95;;
66183;SDS011;52989;48.796;9.806;2022-08-19T06:08:28;24.00;;;18.17;;
66183;SDS011;52989;48.796;9.806;2022-08-19T06:10:54;28.30;;;19.67;;
66183;SDS011;52989;48.796;9.806;2022-08-19T06:13:20;24.25;;;19.20;;
66183;SDS011;52989;48.796;9.806;2022-08-19T06:15:47;26.35;;;20.05;;
66183;SDS011;52989;48.796;9.806;2022-08-19T06:18:13;24.85;;;19.10;;
66183;SDS011;52989;48.796;9.806;2022-08-19T06:20:40;27.00;;;20.33;;
66183;SDS011;52989;48.796;9.806;2022-08-19T06:23:06;21.88;;;16.42;;
66183;SDS011;52989;48.796;9.806;2022-08-19T06:25:31;22.65;;;18.33;;
66183;SDS011;52989;48.796;9.806;2022-08-19T06:27:57;22.30;;;18.23;;
66183;SDS011;52989;48.796;9.806;2022-08-19T06:30:23;20.42;;;15.77;;
66183;SDS011;52989;48.796;9.806;2022-08-19T06:32:48;24.27;;;18.25;;
66183;SDS011;52989;48.796;9.806;2022-08-19T06:35:14;23.42;;;18.15;;
66183;SDS011;52989;48.796;9.806;2022-08-19T06:37:40;21.42;;;17.45;;
66183;SDS011;52989;48.796;9.806;2022-08-19T06:40:06;23.70;;;18.83;;
66183;SDS011;52989;48.796;9.806;2022-08-19T06:42:34;26.80;;;20.00;;
66183;SDS011;52989;48.796;9.806;2022-08-19T06:45:00;27.20;;;19.67;;
66183;SDS011;52989;48.796;9.806;2022-08-19T06:47:27;21.92;;;17.33;;
66183;SDS011;52989;48.796;9.806;2022-08-19T06:49:54;27.50;;;19.50;;
66183;SDS011;52989;48.796;9.806;2022-08-19T06:52:25;26.67;;;20.05;;
66183;SDS011;52989;48.796;9.806;2022-08-19T06:54:50;27.85;;;20.55;;
66183;SDS011;52989;48.796;9.806;2022-08-19T06:57:16;25.90;;;20.20;;
66183;SDS011;52989;48.796;9.806;2022-08-19T06:59:41;26.23;;;19.95;;
66183;SDS011;52989;48.796;9.806;2022-08-19T07:02:07;26.83;;;20.70;;
66183;SDS011;52989;48.796;9.806;2022-08-19T07:04:34;26.92;;;20.80;;
66183;SDS011;52989;48.796;9.806;2022-08-19T07:07:10;24.92;;;19.85;;
66183;SDS011;52989;48.796;9.806;2022-08-19T07:09:39;26.80;;;20.52;;
66183;SDS011;52989;48.796;9.806;2022-08-19T07:12:07;23.67;;;18.42;;
66183;SDS011;52989;48.796;9.806;2022-08-19T07:14:34;25.35;;;19.30;;
66183;SDS011;52989;48.796;9.806;2022-08-19T07:17:03;30.08;;;20.55;;
66183;SDS011;52989;48.796;9.806;2022-08-19T07:19:30;27.52;;;19.70;;
66183;SDS011;52989;48.796;9.806;2022-08-19T07:21:56;28.58;;;21.23;;
66183;SDS011;52989;48.796;9.806;2022-08-19T07:24:24;21.92;;;17.38;;
66183;SDS011;52989;48.796;9.806;2022-08-19T07:26:51;28.73;;;20.98;;
66183;SDS011;52989;48.796;9.806;2022-08-19T07:29:19;30.38;;;22.45;;
66183;SDS011;52989;48.796;9.806;2022-08-19T07:31:47;25.95;;;19.02;;
66183;SDS011;52989;48.796;9.806;2022-08-19T07:34:17;31.35;;;21.67;;
66183;SDS011;52989;48.796;9.806;2022-08-19T07:36:44;30.02;;;21.73;;
66183;SDS011;52989;48.796;9.806;2022-08-19T07:39:12;30.50;;;21.02;;
66183;SDS011;52989;48.796;9.806;2022-08-19T07:41:43;28.85;;;21.05;;
66183;SDS011;52989;48.796;9.806;2022-08-19T07:44:10;34.17;;;22.67;;
66183;SDS011;52989;48.796;9.806;2022-08-19T07:46:38;33.10;;;23.00;;
66183;SDS011;52989;48.796;9.806;2022-08-19T07:49:06;30.73;;;23.05;;
66183;SDS011;52989;48.796;9.806;2022-08-19T07:51:33;35.03;;;24.05;;
66183;SDS011;52989;48.796;9.806;2022-08-19T07:53:59;36.15;;;23.77;;
66183;SDS011;52989;48.796;9.806;2022-08-19T07:56:25;30.95;;;22.60;;
66183;SDS011;52989;48.796;9.806;2022-08-19T07:58:52;29.83;;;20.77;;
66183;SDS011;52989;48.796;9.806;2022-08-19T08:01:19;35.85;;;24.88;;
66183;SDS011;52989;48.796;9.806;2022-08-19T08:03:47;27.65;;;20.20;;
66183;SDS011;52989;48.796;9.806;2022-08-19T08:06:32;35.78;;;23.45;;
66183;SDS011;52989;48.796;9.806;2022-08-19T08:11:52;28.77;;;21.52;;
66183;SDS011;52989;48.796;9.806;2022-08-19T08:14:21;33.58;;;22.65;;
66183;SDS011;52989;48.796;9.806;2022-08-19T08:16:49;35.05;;;25.73;;
66183;SDS011;52989;48.796;9.806;2022-08-19T08:19:16;37.85;;;24.92;;
66183;SDS011;52989;48.796;9.806;2022-08-19T08:21:44;31.95;;;22.65;;
66183;SDS011;52989;48.796;9.806;2022-08-19T08:24:10;27.80;;;21.25;;
66183;SDS011;52989;48.796;9.806;2022-08-19T08:26:36;32.10;;;22.95;;
66183;SDS011;52989;48.796;9.806;2022-08-19T08:29:02;35.45;;;25.10;;
66183;SDS011;52989;48.796;9.806;2022-08-19T08:31:28;35.13;;;23.85;;
66183;SDS011;52989;48.796;9.806;2022-08-19T08:33:54;28.95;;;21.27;;
66183;SDS011;52989;48.796;9.806;2022-08-19T08:36:19;37.53;;;25.83;;
66183;SDS011;52989;48.796;9.806;2022-08-19T08:38:45;34.33;;;24.17;;
66183;SDS011;52989;48.796;9.806;2022-08-19T08:43:58;41.55;;;26.42;;
66183;SDS011;52989;48.796;9.806;2022-08-19T08:46:34;34.30;;;23.05;;
66183;SDS011;52989;48.796;9.806;2022-08-19T08:52:07;36.10;;;25.52;;
66183;SDS011;52989;48.796;9.806;2022-08-19T08:54:38;38.67;;;25.55;;
66183;SDS011;52989;48.796;9.806;2022-08-19T08:57:09;45.67;;;28.27;;
66183;SDS011;52989;48.796;9.806;2022-08-19T08:59:42;31.25;;;21.30;;
66183;SDS011;52989;48.796;9.806;2022-08-19T09:02:10;39.17;;;26.42;;
66183;SDS011;52989;48.796;9.806;2022-08-19T09:04:36;35.55;;;25.70;;
66183;SDS011;52989;48.796;9.806;2022-08-19T09:10:04;33.90;;;24.08;;
66183;SDS011;52989;48.796;9.806;2022-08-19T09:15:39;42.78;;;29.10;;
66183;SDS011;52989;48.796;9.806;2022-08-19T09:18:09;39.28;;;27.10;;
66183;SDS011;52989;48.796;9.806;2022-08-19T09:20:36;33.97;;;22.73;;
66183;SDS011;52989;48.796;9.806;2022-08-19T09:23:01;33.33;;;23.50;;
66183;SDS011;52989;48.796;9.806;2022-08-19T09:25:28;41.00;;;27.70;;
66183;SDS011;52989;48.796;9.806;2022-08-19T09:27:55;39.78;;;27.92;;
66183;SDS011;52989;48.796;9.806;2022-08-19T09:30:23;44.50;;;30.02;;
66183;SDS011;52989;48.796;9.806;2022-08-19T09:32:51;42.10;;;28.42;;
66183;SDS011;52989;48.796;9.806;2022-08-19T09:35:21;44.70;;;28.50;;
66183;SDS011;52989;48.796;9.806;2022-08-19T09:37:49;38.08;;;25.92;;
66183;SDS011;52989;48.796;9.806;2022-08-19T09:40:16;40.83;;;28.02;;
66183;SDS011;52989;48.796;9.806;2022-08-19T09:42:43;39.13;;;27.05;;
66183;SDS011;52989;48.796;9.806;2022-08-19T09:45:11;40.70;;;27.20;;
66183;SDS011;52989;48.796;9.806;2022-08-19T09:47:37;43.10;;;28.00;;
66183;SDS011;52989;48.796;9.806;2022-08-19T09:50:06;32.03;;;24.02;;
66183;SDS011;52989;48.796;9.806;2022-08-19T09:52:33;36.80;;;26.42;;
66183;SDS011;52989;48.796;9.806;2022-08-19T09:55:02;38.38;;;28.23;;
66183;SDS011;52989;48.796;9.806;2022-08-19T09:57:29;31.95;;;23.45;;
66183;SDS011;52989;48.796;9.806;2022-08-19T09:59:54;37.13;;;26.42;;
66183;SDS011;52989;48.796;9.806;2022-08-19T10:02:20;38.30;;;27.02;;
66183;SDS011;52989;48.796;9.806;2022-08-19T10:04:45;34.75;;;24.92;;
66183;SDS011;52989;48.796;9.806;2022-08-19T10:07:30;40.22;;;25.83;;
66183;SDS011;52989;48.796;9.806;2022-08-19T10:09:55;34.88;;;25.88;;
66183;SDS011;52989;48.796;9.806;2022-08-19T10:12:21;37.78;;;27.55;;
66183;SDS011;52989;48.796;9.806;2022-08-19T10:14:47;37.90;;;27.50;;
66183;SDS011;52989;48.796;9.806;2022-08-19T10:17:13;38.33;;;27.55;;
66183;SDS011;52989;48.796;9.806;2022-08-19T10:19:39;34.50;;;26.52;;
66183;SDS011;52989;48.796;9.806;2022-08-19T10:22:05;35.35;;;26.88;;
66183;SDS011;52989;48.796;9.806;2022-08-19T10:24:32;24.70;;;20.38;;
66183;SDS011;52989;48.796;9.806;2022-08-19T10:26:58;31.98;;;22.70;;
66183;SDS011;52989;48.796;9.806;2022-08-19T10:29:29;37.72;;;26.02;;
66183;SDS011;52989;48.796;9.806;2022-08-19T10:31:56;37.42;;;25.45;;
66183;SDS011;52989;48.796;9.806;2022-08-19T10:34:23;40.13;;;25.75;;
66183;SDS011;52989;48.796;9.806;2022-08-19T10:36:50;39.53;;;26.38;;
66183;SDS011;52989;48.796;9.806;2022-08-19T10:39:16;36.13;;;26.35;;
66183;SDS011;52989;48.796;9.806;2022-08-19T10:41:41;31.67;;;24.15;;
66183;SDS011;52989;48.796;9.806;2022-08-19T10:44:10;37.05;;;26.48;;
66183;SDS011;52989;48.796;9.806;2022-08-19T10:46:38;32.40;;;23.83;;
66183;SDS011;52989;48.796;9.806;2022-08-19T10:49:07;31.45;;;23.42;;
66183;SDS011;52989;48.796;9.806;2022-08-19T10:51:34;35.28;;;26.20;;
66183;SDS011;52989;48.796;9.806;2022-08-19T10:54:19;34.08;;;25.10;;
66183;SDS011;52989;48.796;9.806;2022-08-19T10:56:45;35.40;;;26.02;;
66183;SDS011;52989;48.796;9.806;2022-08-19T10:59:26;36.85;;;26.15;;
66183;SDS011;52989;48.796;9.806;2022-08-19T11:01:58;41.20;;;26.10;;
66183;SDS011;52989;48.796;9.806;2022-08-19T11:04:24;32.55;;;22.60;;
66183;SDS011;52989;48.796;9.806;2022-08-19T11:06:50;32.22;;;23.77;;
66183;SDS011;52989;48.796;9.806;2022-08-19T11:09:17;35.28;;;25.52;;
66183;SDS011;52989;48.796;9.806;2022-08-19T11:11:46;39.28;;;26.58;;
66183;SDS011;52989;48.796;9.806;2022-08-19T11:14:14;35.75;;;25.92;;
66183;SDS011;52989;48.796;9.806;2022-08-19T11:16:43;32.58;;;24.92;;
66183;SDS011;52989;48.796;9.806;2022-08-19T11:19:09;37.50;;;25.60;;
66183;SDS011;52989;48.796;9.806;2022-08-19T11:21:41;29.60;;;22.67;;
66183;SDS011;52989;48.796;9.806;2022-08-19T11:24:11;35.80;;;25.30;;
66183;SDS011;52989;48.796;9.806;2022-08-19T11:26:43;34.40;;;25.05;;
66183;SDS011;52989;48.796;9.806;2022-08-19T11:29:09;38.20;;;25.58;;
66183;SDS011;52989;48.796;9.806;2022-08-19T11:31:38;42.38;;;28.50;;
66183;SDS011;52989;48.796;9.806;2022-08-19T11:34:07;45.72;;;29.88;;
66183;SDS011;52989;48.796;9.806;2022-08-19T11:36:37;45.88;;;30.25;;
66183;SDS011;52989;48.796;9.806;2022-08-19T11:39:05;56.03;;;34.03;;
66183;SDS011;52989;48.796;9.806;2022-08-19T11:41:32;64.00;;;35.90;;
66183;SDS011;52989;48.796;9.806;2022-08-19T11:43:58;52.42;;;33.05;;
66183;SDS011;52989;48.796;9.806;2022-08-19T11:46:25;78.30;;;38.70;;
66183;SDS011;52989;48.796;9.806;2022-08-19T11:48:54;96.80;;;42.65;;
66183;SDS011;52989;48.796;9.806;2022-08-19T11:51:21;93.10;;;43.50;;
66183;SDS011;52989;48.796;9.806;2022-08-19T11:53:49;85.85;;;43.35;;
66183;SDS011;52989;48.796;9.806;2022-08-19T11:56:16;114.80;;;46.47;;
66183;SDS011;52989;48.796;9.806;2022-08-19T11:58:43;107.40;;;46.13;;
66183;SDS011;52989;48.796;9.806;2022-08-19T12:01:09;113.72;;;47.97;;
66183;SDS011;52989;48.796;9.806;2022-08-19T12:03:42;101.17;;;48.17;;
66183;SDS011;52989;48.796;9.806;2022-08-19T12:06:10;109.90;;;47.25;;
66183;SDS011;52989;48.796;9.806;2022-08-19T12:08:38;107.28;;;48.72;;
66183;SDS011;52989;48.796;9.806;2022-08-19T12:11:04;96.82;;;47.25;;
66183;SDS011;52989;48.796;9.806;2022-08-19T12:13:33;83.38;;;43.20;;
66183;SDS011;52989;48.796;9.806;2022-08-19T12:15:59;65.35;;;39.55;;
66183;SDS011;52989;48.796;9.806;2022-08-19T12:18:25;56.30;;;35.22;;
66183;SDS011;52989;48.796;9.806;2022-08-19T12:20:52;37.13;;;27.08;;
66183;SDS011;52989;48.796;9.806;2022-08-19T12:23:20;61.90;;;35.25;;
66183;SDS011;52989;48.796;9.806;2022-08-19T12:25:46;55.58;;;36.90;;
66183;SDS011;52989;48.796;9.806;2022-08-19T12:28:16;57.58;;;36.47;;
66183;SDS011;52989;48.796;9.806;2022-08-19T12:30:46;41.33;;;28.50;;
66183;SDS011;52989;48.796;9.806;2022-08-19T12:33:12;60.50;;;35.33;;
66183;SDS011;52989;48.796;9.806;2022-08-19T12:35:41;39.17;;;27.17;;
66183;SDS011;52989;48.796;9.806;2022-08-19T12:38:10;61.92;;;34.42;;
66183;SDS011;52989;48.796;9.806;2022-08-19T12:40:35;87.43;;;38.20;;
66183;SDS011;52989;48.796;9.806;2022-08-19T12:43:02;108.40;;;43.28;;
66183;SDS011;52989;48.796;9.806;2022-08-19T12:45:27;79.20;;;42.03;;
66183;SDS011;52989;48.796;9.806;2022-08-19T12:47:53;96.32;;;42.90;;
66183;SDS011;52989;48.796;9.806;2022-08-19T12:50:19;117.28;;;44.45;;
66183;SDS011;52989;48.796;9.806;2022-08-19T12:52:46;95.55;;;41.75;;
66183;SDS011;52989;48.796;9.806;2022-08-19T12:55:12;84.97;;;42.72;;
66183;SDS011;52989;48.796;9.806;2022-08-19T12:57:38;59.92;;;35.53;;
66183;SDS011;52989;48.796;9.806;2022-08-19T13:00:12;71.85;;;35.03;;
66183;SDS011;52989;48.796;9.806;2022-08-19T13:02:41;54.35;;;33.45;;
66183;SDS011;52989;48.796;9.806;2022-08-19T13:05:12;55.63;;;33.78;;
66183;SDS011;52989;48.796;9.806;2022-08-19T13:07:40;78.32;;;36.08;;
66183;SDS011;52989;48.796;9.806;2022-08-19T13:10:11;76.30;;;38.83;;
66183;SDS011;52989;48.796;9.806;2022-08-19T13:12:40;121.82;;;42.58;;
66183;SDS011;52989;48.796;9.806;2022-08-19T13:15:07;144.02;;;41.45;;
66183;SDS011;52989;48.796;9.806;2022-08-19T13:17:34;287.13;;;49.83;;
66183;SDS011;52989;48.796;9.806;2022-08-19T13:20:00;138.52;;;45.53;;
66183;SDS011;52989;48.796;9.806;2022-08-19T13:22:26;190.23;;;46.97;;
66183;SDS011;52989;48.796;9.806;2022-08-19T13:24:52;168.00;;;44.22;;
66183;SDS011;52989;48.796;9.806;2022-08-19T13:27:17;240.45;;;49.03;;
66183;SDS011;52989;48.796;9.806;2022-08-19T13:29:43;132.23;;;43.05;;
66183;SDS011;52989;48.796;9.806;2022-08-19T13:32:28;159.55;;;43.80;;
66183;SDS011;52989;48.796;9.806;2022-08-19T13:35:13;78.68;;;40.05;;
66183;SDS011;52989;48.796;9.806;2022-08-19T13:37:39;67.20;;;39.15;;
66183;SDS011;52989;48.796;9.806;2022-08-19T13:40:11;68.40;;;36.42;;
66183;SDS011;52989;48.796;9.806;2022-08-19T13:42:42;99.18;;;40.60;;
66183;SDS011;52989;48.796;9.806;2022-08-19T13:45:09;85.25;;;40.60;;
66183;SDS011;52989;48.796;9.806;2022-08-19T13:47:35;79.30;;;40.28;;
66183;SDS011;52989;48.796;9.806;2022-08-19T13:50:07;72.45;;;38.63;;
66183;SDS011;52989;48.796;9.806;2022-08-19T13:52:34;74.15;;;39.38;;
66183;SDS011;52989;48.796;9.806;2022-08-19T13:54:59;88.47;;;40.35;;
66183;SDS011;52989;48.796;9.806;2022-08-19T13:57:25;86.80;;;39.35;;
66183;SDS011;52989;48.796;9.806;2022-08-19T13:59:50;65.18;;;35.80;;
66183;SDS011;52989;48.796;9.806;2022-08-19T14:02:16;70.35;;;37.08;;
66183;SDS011;52989;48.796;9.806;2022-08-19T14:04:41;72.15;;;37.17;;
66183;SDS011;52989;48.796;9.806;2022-08-19T14:07:07;65.07;;;35.65;;
66183;SDS011;52989;48.796;9.806;2022-08-19T14:09:34;62.15;;;36.40;;
66183;SDS011;52989;48.796;9.806;2022-08-19T14:11:59;84.45;;;36.88;;
66183;SDS011;52989;48.796;9.806;2022-08-19T14:14:25;64.65;;;36.10;;
66183;SDS011;52989;48.796;9.806;2022-08-19T14:16:51;78.65;;;38.13;;
66183;SDS011;52989;48.796;9.806;2022-08-19T14:19:16;87.22;;;38.78;;
66183;SDS011;52989;48.796;9.806;2022-08-19T14:21:42;66.28;;;37.67;;
66183;SDS011;52989;48.796;9.806;2022-08-19T14:24:08;68.43;;;37.25;;
66183;SDS011;52989;48.796;9.806;2022-08-19T14:26:33;67.22;;;35.60;;
66183;SDS011;52989;48.796;9.806;2022-08-19T14:28:59;61.47;;;35.85;;
66183;SDS011;52989;48.796;9.806;2022-08-19T14:31:26;48.70;;;30.15;;
66183;SDS011;52989;48.796;9.806;2022-08-19T14:33:51;40.13;;;27.08;;
66183;SDS011;52989;48.796;9.806;2022-08-19T14:36:18;35.97;;;26.20;;
66183;SDS011;52989;48.796;9.806;2022-08-19T14:38:45;38.45;;;27.30;;
66183;SDS011;52989;48.796;9.806;2022-08-19T14:41:13;34.28;;;25.25;;